Terminal Aerodrome Forecast
Issued by NWS

Home | Current Version | Previous Version | Text Only | Print | Product List | Glossary On
Versions: 1 2 3 4 5 6 7 8 9 10 11 12 13 14 15 16 17 18 19 20 21 22 23 24 25 26 27 28 29
000
FTUS41 KCAR 020300 AAB
TAFHUL
TAF AMD
KHUL 020343Z 0204/0224 VRB03KT 5SM BR OVC004
     FM020600 VRB03KT 2SM BR OVC004
     FM021200 16006KT 5SM BR BKN008
     FM021400 16007KT P6SM BKN020
     FM021800 18007KT P6SM BKN035=

USA.gov is the U.S. government's official web portal to all federal, state and local government web resources and services.